createdAt,value
2019-02-17T00:01:54.212Z,71.51
2019-02-17T00:04:23.079Z,71.80
2019-02-17T00:06:51.945Z,72.33
2019-02-17T00:09:20.825Z,72.12
2019-02-17T00:11:49.693Z,72.56
2019-02-17T00:14:18.565Z,72.81
2019-02-17T00:16:47.426Z,72.62
2019-02-17T00:19:16.294Z,72.32
2019-02-17T00:21:45.201Z,72.55
2019-02-17T00:24:14.045Z,72.70
2019-02-17T00:26:42.911Z,73.08
2019-02-17T00:29:11.783Z,72.97
2019-02-17T00:31:40.648Z,72.61
2019-02-17T00:34:09.533Z,72.94
2019-02-17T00:36:38.401Z,72.96
2019-02-17T00:39:07.275Z,72.83
2019-02-17T00:41:37.087Z,72.83
2019-02-17T00:44:05.942Z,73.51
2019-02-17T00:46:34.820Z,74.06
2019-02-17T00:49:03.702Z,73.37
2019-02-17T00:51:32.561Z,73.14
2019-02-17T00:54:01.447Z,72.97
2019-02-17T00:56:30.304Z,72.97
2019-02-17T00:59:09.347Z,73.29
2019-02-17T01:01:29.772Z,73.41
2019-02-17T01:03:58.630Z,73.82
2019-02-17T01:06:27.501Z,74.11
2019-02-17T01:08:56.344Z,73.62
2019-02-17T01:11:25.219Z,74.28
2019-02-17T01:13:54.068Z,74.53
2019-02-17T01:16:24.989Z,74.93
2019-02-17T01:18:53.520Z,74.94
2019-02-17T01:21:22.374Z,74.84
2019-02-17T01:23:51.250Z,74.10
2019-02-17T01:26:20.095Z,74.03
2019-02-17T01:28:48.960Z,74.10
2019-02-17T01:31:18.067Z,74.37
2019-02-17T01:33:46.911Z,75.19
2019-02-17T01:36:15.785Z,75.07
2019-02-17T01:38:44.641Z,74.79
2019-02-17T01:41:13.561Z,74.83
2019-02-17T01:43:42.484Z,74.92
2019-02-17T01:46:11.341Z,75.52
2019-02-17T01:48:40.200Z,75.57
2019-02-17T01:51:09.048Z,75.31
2019-02-17T01:53:37.918Z,74.56
2019-02-17T01:56:06.784Z,74.54
2019-02-17T01:58:35.666Z,74.57
2019-02-17T02:01:04.568Z,74.57
2019-02-17T02:03:33.457Z,75.35
2019-02-17T02:06:02.307Z,75.12
2019-02-17T02:08:31.165Z,75.44
2019-02-17T02:11:00.052Z,75.85
2019-02-17T02:13:28.940Z,75.74
2019-02-17T02:15:57.818Z,75.30
2019-02-17T02:18:26.689Z,75.59
2019-02-17T02:20:55.568Z,75.66
2019-02-17T02:23:24.449Z,75.86
2019-02-17T02:25:53.315Z,75.50
2019-02-17T02:28:22.179Z,75.86
2019-02-17T02:30:51.055Z,76.32
2019-02-17T02:33:19.951Z,76.46
2019-02-17T02:35:48.806Z,76.03
2019-02-17T02:38:18.094Z,75.86
2019-02-17T02:40:46.912Z,75.51
2019-02-17T02:43:15.771Z,75.79
2019-02-17T02:45:44.638Z,75.68
2019-02-17T02:48:13.519Z,75.34
2019-02-17T02:50:42.381Z,75.63
2019-02-17T02:53:11.274Z,75.84
2019-02-17T02:55:40.145Z,76.52
2019-02-17T02:58:08.982Z,76.02
2019-02-17T03:00:37.863Z,76.17
2019-02-17T03:03:06.710Z,76.38
2019-02-17T03:05:37.213Z,75.98
2019-02-17T03:08:06.081Z,76.18
2019-02-17T03:10:34.957Z,76.08
2019-02-17T03:13:03.824Z,76.52
2019-02-17T03:15:32.693Z,76.72
2019-02-17T03:18:01.571Z,76.73
2019-02-17T03:20:30.427Z,76.47
2019-02-17T03:22:59.274Z,76.93
2019-02-17T03:25:28.147Z,78.23
2019-02-17T03:27:57.016Z,78.19
2019-02-17T03:30:25.868Z,77.99
2019-02-17T03:32:54.743Z,78.37
2019-02-17T03:35:23.958Z,78.90
2019-02-17T03:37:52.864Z,78.93
2019-02-17T03:40:21.717Z,78.95
2019-02-17T03:42:51.338Z,79.18
2019-02-17T03:45:20.239Z,79.33
2019-02-17T03:47:49.105Z,79.74
2019-02-17T03:50:17.975Z,79.57
2019-02-17T03:52:46.840Z,78.98
2019-02-17T03:55:15.695Z,79.48
2019-02-17T03:57:44.617Z,78.99
2019-02-17T04:00:16.828Z,79.99
2019-02-17T04:02:44.056Z,80.52
2019-02-17T04:05:13.221Z,80.35
2019-02-17T04:07:42.105Z,80.42
2019-02-17T04:10:10.966Z,80.44
2019-02-17T04:12:39.832Z,80.23
2019-02-17T04:15:09.060Z,79.86
2019-02-17T04:17:37.938Z,80.05
2019-02-17T04:20:08.032Z,80.17
2019-02-17T04:22:36.893Z,80.08
2019-02-17T04:25:06.834Z,80.61
2019-02-17T04:27:35.689Z,80.11
2019-02-17T04:30:05.597Z,79.55
2019-02-17T04:32:36.083Z,79.44
2019-02-17T04:35:05.395Z,79.37
2019-02-17T04:37:34.605Z,79.32
2019-02-17T04:40:03.632Z,80.07
2019-02-17T04:42:32.534Z,79.72
2019-02-17T04:45:01.384Z,79.98
2019-02-17T04:47:30.933Z,80.11
2019-02-17T04:49:59.863Z,80.20
2019-02-17T04:52:28.767Z,79.81
2019-02-17T04:54:57.618Z,79.66
2019-02-17T04:57:26.501Z,80.24
2019-02-17T04:59:55.428Z,80.95
2019-02-17T05:02:24.280Z,81.06
2019-02-17T05:04:54.617Z,81.08
2019-02-17T05:07:23.481Z,81.12
2019-02-17T05:09:52.344Z,81.39
2019-02-17T05:12:21.199Z,81.50
2019-02-17T05:14:50.091Z,80.93
2019-02-17T05:17:18.944Z,80.91
2019-02-17T05:19:47.806Z,81.22
2019-02-17T05:22:16.658Z,81.00
2019-02-17T05:24:45.512Z,81.08
2019-02-17T05:27:14.385Z,81.04
2019-02-17T05:29:43.247Z,81.44
2019-02-17T05:32:12.195Z,81.70
2019-02-17T05:34:41.048Z,81.08
2019-02-17T05:37:09.909Z,80.49
2019-02-17T05:39:38.763Z,80.49
2019-02-17T05:42:07.641Z,81.08
2019-02-17T05:44:36.490Z,81.68
2019-02-17T05:47:05.347Z,82.19
2019-02-17T05:49:34.232Z,82.34
2019-02-17T05:52:03.087Z,82.02
2019-02-17T05:54:31.951Z,81.33
2019-02-17T05:57:00.801Z,81.14
2019-02-17T05:59:29.668Z,81.85
2019-02-17T06:01:58.549Z,82.21
2019-02-17T06:04:27.398Z,82.36
2019-02-17T06:06:56.277Z,82.18
2019-02-17T06:09:25.155Z,81.94
2019-02-17T06:11:54.063Z,81.90
2019-02-17T06:14:22.959Z,82.55
2019-02-17T06:16:51.819Z,83.07
2019-02-17T06:19:20.671Z,83.21
2019-02-17T06:21:49.538Z,82.55
2019-02-17T06:24:18.391Z,81.71
2019-02-17T06:26:47.239Z,81.64
2019-02-17T06:29:16.117Z,81.83
2019-02-17T06:31:45.012Z,82.33
2019-02-17T06:34:13.869Z,82.15
2019-02-17T06:36:42.758Z,81.86
2019-02-17T06:39:11.646Z,82.14
2019-02-17T06:41:40.495Z,82.05
2019-02-17T06:44:09.361Z,82.51
2019-02-17T06:46:39.879Z,82.94
2019-02-17T06:49:08.763Z,83.97
2019-02-17T06:51:37.673Z,83.06
2019-02-17T06:54:06.551Z,82.76
2019-02-17T06:56:37.051Z,82.61
2019-02-17T06:59:05.971Z,82.45
2019-02-17T07:01:34.840Z,82.47
2019-02-17T07:04:03.703Z,82.24
2019-02-17T07:06:37.248Z,82.20
2019-02-17T07:09:06.475Z,82.14
2019-02-17T07:11:35.342Z,82.05
2019-02-17T07:14:04.387Z,81.87
2019-02-17T07:16:33.251Z,81.67
2019-02-17T07:19:03.410Z,81.36
2019-02-17T07:21:32.294Z,81.81
2019-02-17T07:24:01.145Z,81.62
2019-02-17T07:26:30.024Z,81.26
2019-02-17T07:28:58.889Z,80.70
2019-02-17T07:31:34.715Z,81.27
2019-02-17T07:33:58.367Z,81.37
2019-02-17T07:36:27.289Z,80.79
2019-02-17T07:38:56.197Z,80.71
2019-02-17T07:41:25.065Z,80.22
2019-02-17T07:43:53.918Z,79.74
2019-02-17T07:46:22.804Z,80.16
2019-02-17T07:48:51.666Z,80.07
2019-02-17T07:51:20.528Z,79.93
2019-02-17T07:53:49.428Z,79.72
2019-02-17T07:56:18.294Z,79.33
2019-02-17T07:58:47.161Z,79.25
2019-02-17T08:01:16.032Z,79.08
2019-02-17T08:03:44.901Z,78.87
2019-02-17T08:06:13.797Z,78.15
2019-02-17T08:08:42.655Z,77.96
2019-02-17T08:11:11.513Z,77.49
2019-02-17T08:13:40.414Z,77.11
2019-02-17T08:16:09.272Z,76.45
2019-02-17T08:18:38.132Z,76.02
2019-02-17T08:21:07.006Z,76.09
2019-02-17T08:23:35.866Z,76.35
2019-02-17T08:26:04.747Z,76.19
2019-02-17T08:28:33.613Z,75.86
2019-02-17T08:31:02.488Z,75.61
2019-02-17T08:33:31.363Z,75.37
2019-02-17T08:36:00.257Z,74.70
2019-02-17T08:38:29.165Z,74.36
2019-02-17T08:40:58.027Z,73.44
2019-02-17T08:43:26.904Z,73.29
2019-02-17T08:45:55.760Z,72.73
2019-02-17T08:48:24.672Z,72.68
2019-02-17T08:50:53.575Z,71.95
2019-02-17T08:53:22.432Z,71.82
2019-02-17T08:55:51.378Z,70.97
2019-02-17T08:58:20.270Z,70.64
2019-02-17T09:00:49.188Z,70.48
2019-02-17T09:03:18.077Z,70.30
2019-02-17T09:05:46.942Z,69.97
2019-02-17T09:08:15.505Z,69.73
2019-02-17T09:10:44.406Z,69.19
2019-02-17T09:13:12.960Z,69.08
2019-02-17T09:15:41.521Z,69.49
2019-02-17T09:18:10.408Z,69.53
2019-02-17T09:20:38.984Z,69.16
2019-02-17T09:23:07.563Z,68.91
2019-02-17T09:25:37.670Z,68.98
2019-02-17T09:28:06.279Z,68.56
2019-02-17T09:30:34.918Z,68.01
2019-02-17T09:33:03.494Z,68.17
2019-02-17T09:35:32.078Z,68.22
2019-02-17T09:38:00.727Z,68.14
2019-02-17T09:40:29.289Z,67.62
2019-02-17T09:42:57.864Z,67.68
2019-02-17T09:45:26.432Z,67.04
2019-02-17T09:47:54.992Z,66.85
2019-02-17T09:50:23.885Z,67.24
2019-02-17T09:52:52.488Z,66.91
2019-02-17T09:55:21.071Z,66.78
2019-02-17T09:57:49.629Z,66.68
2019-02-17T10:00:18.224Z,66.42
2019-02-17T10:02:46.791Z,66.10
2019-02-17T10:05:15.625Z,65.90
2019-02-17T10:07:44.251Z,65.50
2019-02-17T10:10:17.881Z,65.48
2019-02-17T10:12:46.454Z,65.06
2019-02-17T10:15:15.052Z,65.05
2019-02-17T10:17:43.651Z,64.58
2019-02-17T10:20:18.002Z,64.19
2019-02-17T10:22:46.561Z,64.38
2019-02-17T10:25:15.157Z,64.43
2019-02-17T10:27:43.742Z,63.89
2019-02-17T10:30:16.419Z,63.78
2019-02-17T10:32:44.997Z,63.13
2019-02-17T10:35:13.608Z,63.07
2019-02-17T10:37:42.206Z,62.78
2019-02-17T10:40:18.432Z,62.75
2019-02-17T10:42:47.026Z,62.54
2019-02-17T10:45:15.599Z,62.17
2019-02-17T10:47:44.172Z,62.42
2019-02-17T10:50:13.480Z,62.11
2019-02-17T10:52:42.038Z,62.06
2019-02-17T10:55:12.467Z,61.85
2019-02-17T10:57:41.041Z,61.45
2019-02-17T11:00:13.030Z,61.43
2019-02-17T11:02:47.132Z,61.17
2019-02-17T11:05:12.312Z,61.13
2019-02-17T11:07:40.881Z,59.96
2019-02-17T11:10:11.694Z,59.96
2019-02-17T11:12:40.440Z,60.11
2019-02-17T11:15:15.184Z,58.78
2019-02-17T11:17:43.787Z,58.78
2019-02-17T11:20:12.350Z,58.96
2019-02-17T11:22:40.959Z,59.85
2019-02-17T11:25:09.565Z,59.81
2019-02-17T11:27:38.137Z,59.81
2019-02-17T11:30:12.441Z,59.97
2019-02-17T11:32:41.032Z,59.53
2019-02-17T11:35:09.602Z,58.38
2019-02-17T11:37:38.171Z,58.12
2019-02-17T11:40:09.816Z,58.12
2019-02-17T11:42:38.378Z,58.23
2019-02-17T11:45:13.541Z,58.23
2019-02-17T11:47:42.125Z,58.10
2019-02-17T11:50:10.860Z,57.46
2019-02-17T11:52:39.622Z,57.86
2019-02-17T11:55:11.329Z,57.86
2019-02-17T11:57:39.896Z,57.59
2019-02-17T12:00:14.567Z,57.81
2019-02-17T12:02:43.267Z,58.00
2019-02-17T12:05:11.981Z,55.94
2019-02-17T12:07:40.547Z,56.48
2019-02-17T12:10:11.056Z,56.48
2019-02-17T12:12:40.016Z,56.11
2019-02-17T12:15:11.447Z,56.11
2019-02-17T12:17:40.002Z,56.32
2019-02-17T12:20:24.728Z,56.32
2019-02-17T12:22:55.002Z,56.05
2019-02-17T12:25:25.221Z,56.10
2019-02-17T12:27:55.460Z,56.32
2019-02-17T12:30:24.026Z,56.12
2019-02-17T12:32:52.618Z,56.07
2019-02-17T12:35:21.191Z,55.82
2019-02-17T12:37:51.333Z,55.42
2019-02-17T12:40:19.938Z,54.92
2019-02-17T12:42:48.509Z,54.69
2019-02-17T12:45:18.381Z,55.15
2019-02-17T12:47:55.443Z,55.22
2019-02-17T12:50:17.498Z,55.07
2019-02-17T12:52:47.730Z,54.23
2019-02-17T12:55:16.539Z,54.00
2019-02-17T12:57:45.153Z,53.78
2019-02-17T13:00:16.511Z,53.65
2019-02-17T13:02:45.094Z,54.38
2019-02-17T13:05:13.723Z,53.70
2019-02-17T13:07:42.951Z,53.24
2019-02-17T13:10:12.400Z,53.21
2019-02-17T13:12:40.973Z,53.06
2019-02-17T13:15:13.726Z,53.97
2019-02-17T13:17:42.303Z,53.66
2019-02-17T13:20:15.317Z,53.96
2019-02-17T13:22:43.908Z,53.22
2019-02-17T13:25:15.001Z,53.19
2019-02-17T13:27:43.596Z,52.62
2019-02-17T13:30:20.572Z,51.94
2019-02-17T13:32:49.142Z,51.94
2019-02-17T13:35:17.740Z,51.99
2019-02-17T13:37:46.309Z,51.90
2019-02-17T13:40:15.045Z,52.68
2019-02-17T13:42:43.663Z,53.10
2019-02-17T13:45:14.732Z,53.10
2019-02-17T13:47:43.343Z,53.10
2019-02-17T13:50:15.864Z,52.73
2019-02-17T13:52:44.471Z,51.48
2019-02-17T13:55:13.116Z,52.50
2019-02-17T13:57:41.770Z,52.07
2019-02-17T14:00:15.531Z,51.93
2019-02-17T14:02:44.126Z,51.96
2019-02-17T14:05:12.705Z,51.47
2019-02-17T14:07:41.284Z,51.41
2019-02-17T14:10:11.720Z,51.34
2019-02-17T14:12:40.358Z,51.97
2019-02-17T14:15:11.797Z,52.44
2019-02-17T14:17:40.376Z,52.21
2019-02-17T14:20:10.497Z,52.62
2019-02-17T14:22:39.103Z,51.69
2019-02-17T14:25:11.016Z,51.48
2019-02-17T14:27:39.724Z,51.36
2019-02-17T14:30:13.791Z,51.84
2019-02-17T14:32:42.396Z,52.05
2019-02-17T14:35:10.952Z,52.53
2019-02-17T14:37:39.513Z,53.31
2019-02-17T14:40:13.361Z,53.22
2019-02-17T14:42:41.925Z,53.02
2019-02-17T14:45:15.016Z,53.30
2019-02-17T14:47:43.640Z,53.58
2019-02-17T14:50:13.147Z,53.95
2019-02-17T14:52:41.767Z,53.64
2019-02-17T14:55:11.668Z,53.64
2019-02-17T14:57:40.296Z,54.61
2019-02-17T15:00:18.189Z,54.99
2019-02-17T15:02:46.784Z,54.99
2019-02-17T15:05:15.352Z,55.27
2019-02-17T15:07:43.970Z,55.24
2019-02-17T15:10:14.078Z,55.55
2019-02-17T15:12:42.703Z,55.62
2019-02-17T15:15:12.801Z,56.33
2019-02-17T15:17:41.504Z,56.48
2019-02-17T15:20:12.755Z,56.45
2019-02-17T15:22:41.326Z,56.45
2019-02-17T15:25:11.648Z,56.87
2019-02-17T15:27:40.234Z,57.16
2019-02-17T15:30:11.843Z,57.38
2019-02-17T15:32:40.428Z,56.25
2019-02-17T15:35:09.182Z,55.44
2019-02-17T15:37:37.828Z,54.95
2019-02-17T15:40:11.629Z,54.42
2019-02-17T15:42:42.904Z,54.37
2019-02-17T15:45:13.273Z,54.28
2019-02-17T15:47:41.853Z,54.38
2019-02-17T15:50:14.147Z,54.94
2019-02-17T15:52:42.782Z,55.36
2019-02-17T15:55:15.104Z,55.29
2019-02-17T15:57:43.717Z,54.92
2019-02-17T16:00:20.137Z,56.07
2019-02-17T16:02:48.719Z,55.65
2019-02-17T16:05:17.298Z,56.11
2019-02-17T16:07:45.888Z,56.13
2019-02-17T16:10:16.031Z,56.50
2019-02-17T16:12:44.604Z,56.30
2019-02-17T16:15:18.486Z,57.07
2019-02-17T16:17:47.079Z,57.45
2019-02-17T16:20:15.660Z,57.45
2019-02-17T16:22:44.252Z,58.42
2019-02-17T16:25:14.558Z,58.42
2019-02-17T16:27:43.122Z,58.38
2019-02-17T16:30:14.575Z,58.07
2019-02-17T16:32:43.167Z,57.85
2019-02-17T16:35:11.924Z,57.99
2019-02-17T16:37:40.534Z,58.59
2019-02-17T16:40:11.694Z,58.35
2019-02-17T16:42:40.274Z,58.35
2019-02-17T16:45:11.521Z,59.56
2019-02-17T16:47:40.107Z,59.56
2019-02-17T16:50:15.323Z,59.58
2019-02-17T16:52:43.916Z,60.27
2019-02-17T16:55:12.668Z,60.27
2019-02-17T16:57:41.257Z,60.33
2019-02-17T17:00:19.130Z,60.72
2019-02-17T17:02:48.034Z,60.72
2019-02-17T17:05:16.684Z,60.81
2019-02-17T17:07:45.289Z,61.44
2019-02-17T17:10:14.446Z,61.44
2019-02-17T17:12:43.189Z,61.77
2019-02-17T17:15:12.325Z,61.97
2019-02-17T17:17:40.980Z,62.17
2019-02-17T17:20:17.602Z,62.24
2019-02-17T17:22:46.291Z,62.24
2019-02-17T17:25:15.305Z,62.29
2019-02-17T17:27:43.897Z,62.58
2019-02-17T17:30:16.520Z,62.92
2019-02-17T17:32:45.121Z,63.18
2019-02-17T17:35:14.056Z,63.70
2019-02-17T17:37:42.688Z,64.40
2019-02-17T17:40:13.381Z,64.77
2019-02-17T17:42:41.940Z,64.34
2019-02-17T17:45:18.573Z,64.12
2019-02-17T17:47:47.164Z,64.32
2019-02-17T17:50:17.007Z,64.51
2019-02-17T17:52:45.579Z,64.50
2019-02-17T17:55:17.635Z,64.93
2019-02-17T17:57:46.365Z,66.20
2019-02-17T18:00:20.657Z,66.85
2019-02-17T18:02:49.248Z,67.16
2019-02-17T18:05:17.817Z,67.24
2019-02-17T18:07:47.313Z,67.34
2019-02-17T18:10:16.840Z,67.75
2019-02-17T18:12:45.425Z,67.84
2019-02-17T18:15:15.591Z,67.14
2019-02-17T18:17:53.501Z,67.11
2019-02-17T18:20:14.783Z,67.62
2019-02-17T18:22:43.552Z,68.46
2019-02-17T18:25:13.947Z,68.72
2019-02-17T18:27:42.621Z,69.07
2019-02-17T18:30:16.888Z,69.18
2019-02-17T18:32:45.749Z,69.43
2019-02-17T18:35:19.637Z,69.21
2019-02-17T18:37:45.001Z,69.44
2019-02-17T18:40:20.799Z,70.09
2019-02-17T18:42:49.382Z,70.68
2019-02-17T18:45:17.981Z,70.65
2019-02-17T18:47:49.387Z,70.62
2019-02-17T18:50:19.092Z,71.01
2019-02-17T18:52:47.687Z,70.83
2019-02-17T18:55:16.311Z,71.39
2019-02-17T18:57:49.983Z,71.61
2019-02-17T19:00:23.425Z,71.96
2019-02-17T19:02:52.027Z,72.25
2019-02-17T19:05:31.140Z,73.12
2019-02-17T19:07:50.949Z,73.23
2019-02-17T19:10:19.544Z,72.51
2019-02-17T19:12:48.142Z,72.57
2019-02-17T19:15:20.694Z,72.95
2019-02-17T19:17:49.448Z,72.75
2019-02-17T19:20:32.194Z,72.94
2019-02-17T19:23:00.952Z,73.82
2019-02-17T19:25:29.557Z,73.45
2019-02-17T19:27:59.695Z,73.31
2019-02-17T19:30:28.271Z,73.87
2019-02-17T19:32:56.874Z,74.58
2019-02-17T19:35:25.475Z,75.15
2019-02-17T19:37:54.679Z,74.61
2019-02-17T19:40:23.293Z,74.52
2019-02-17T19:42:51.855Z,74.55
2019-02-17T19:45:21.670Z,75.15
2019-02-17T19:47:50.268Z,75.51
2019-02-17T19:50:18.822Z,75.75
2019-02-17T19:52:47.433Z,76.21
2019-02-17T19:55:16.035Z,76.51
2019-02-17T19:57:44.645Z,76.13
2019-02-17T20:00:17.509Z,76.17
2019-02-17T20:02:59.892Z,76.82
2019-02-17T20:05:31.323Z,77.28
2019-02-17T20:08:00.226Z,77.23
2019-02-17T20:10:29.128Z,77.03
2019-02-17T20:12:58.014Z,77.34
2019-02-17T20:15:28.563Z,77.41
2019-02-17T20:17:57.458Z,77.42
2019-02-17T20:20:27.858Z,77.57
2019-02-17T20:22:56.724Z,77.47
2019-02-17T20:25:25.630Z,77.64
2019-02-17T20:27:54.519Z,78.42
2019-02-17T20:30:23.410Z,78.48
2019-02-17T20:32:52.292Z,78.30
2019-02-17T20:35:21.239Z,78.40
2019-02-17T20:37:50.103Z,78.68
2019-02-17T20:40:19.375Z,78.86
2019-02-17T20:42:48.247Z,78.68
2019-02-17T20:45:17.179Z,78.18
2019-02-17T20:47:46.046Z,78.39
2019-02-17T20:50:18.835Z,78.55
2019-02-17T20:52:47.758Z,78.91
2019-02-17T20:55:16.635Z,79.12
2019-02-17T20:57:45.549Z,79.43
2019-02-17T21:00:23.126Z,79.86
2019-02-17T21:02:52.014Z,80.49
2019-02-17T21:05:20.909Z,80.77
2019-02-17T21:07:49.804Z,80.51
2019-02-17T21:10:18.658Z,80.44
2019-02-17T21:12:47.634Z,80.32
2019-02-17T21:15:21.271Z,80.24
2019-02-17T21:17:50.178Z,80.66
2019-02-17T21:20:19.673Z,80.95
2019-02-17T21:22:48.581Z,81.79
2019-02-17T21:25:17.445Z,81.66
2019-02-17T21:27:46.358Z,81.30
2019-02-17T21:30:18.070Z,81.52
2019-02-17T21:32:47.513Z,81.37
2019-02-17T21:35:17.242Z,81.75
2019-02-17T21:37:46.221Z,81.81
2019-02-17T21:40:15.450Z,81.72
2019-02-17T21:42:44.360Z,81.80
2019-02-17T21:45:15.932Z,81.55
2019-02-17T21:47:44.848Z,82.39
2019-02-17T21:50:16.458Z,82.50
2019-02-17T21:52:45.356Z,82.40
2019-02-17T21:55:16.927Z,82.21
2019-02-17T21:57:45.803Z,81.98
2019-02-17T22:00:19.915Z,82.17
2019-02-17T22:02:49.144Z,82.23
2019-02-17T22:05:19.953Z,82.66
2019-02-17T22:07:48.851Z,82.31
2019-02-17T22:10:18.864Z,82.02
2019-02-17T22:12:47.741Z,81.98
2019-02-17T22:15:21.254Z,82.00
2019-02-17T22:17:50.137Z,82.04
2019-02-17T22:20:19.009Z,82.43
2019-02-17T22:22:47.884Z,82.82
2019-02-17T22:25:16.907Z,82.29
2019-02-17T22:27:46.601Z,82.28
2019-02-17T22:30:15.971Z,82.82
2019-02-17T22:32:45.031Z,82.99
2019-02-17T22:35:13.971Z,82.83
2019-02-17T22:37:42.897Z,83.48
2019-02-17T22:40:14.824Z,83.46
2019-02-17T22:42:43.659Z,83.54
2019-02-17T22:45:13.173Z,83.12
2019-02-17T22:47:42.098Z,82.96
2019-02-17T22:50:12.697Z,82.93
2019-02-17T22:52:41.593Z,83.34
2019-02-17T22:55:11.506Z,83.39
2019-02-17T22:57:40.343Z,83.45
2019-02-17T23:00:31.341Z,83.49
2019-02-17T23:03:00.192Z,83.33
2019-02-17T23:05:29.071Z,83.39
2019-02-17T23:07:57.952Z,83.82
2019-02-17T23:10:26.831Z,84.02
2019-02-17T23:12:55.731Z,84.04
2019-02-17T23:15:24.637Z,84.22
2019-02-17T23:17:53.512Z,84.22
2019-02-17T23:20:22.401Z,84.04
2019-02-17T23:22:51.293Z,83.60
2019-02-17T23:25:20.216Z,83.58
2019-02-17T23:27:49.073Z,83.46
2019-02-17T23:30:17.950Z,83.36
2019-02-17T23:32:46.809Z,83.38
2019-02-17T23:35:15.694Z,83.64
2019-02-17T23:37:44.572Z,83.80
2019-02-17T23:40:13.440Z,83.48
2019-02-17T23:42:42.325Z,83.05
2019-02-17T23:45:14.789Z,82.82
2019-02-17T23:47:43.643Z,83.04
2019-02-17T23:50:13.749Z,84.09
2019-02-17T23:52:42.881Z,84.22
2019-02-17T23:55:12.685Z,84.00
2019-02-17T23:57:41.533Z,85.13
